San Diego, CA (92132)

8:47 PM PDT on October 22, 2014 (GMT -0700)
Embarcadero North | Change Station
CLOSE
Current Station
Personal Weather Station
Location: San Diego, CA
Elevation: 10 ft
Nearby Weather Stations

Elev 10 ft 32.72 °N, 117.17 °W | Updated 5 seconds ago

Scattered Clouds
Scattered Clouds
68.8 °F
Feels Like 68.8 °F
N
2.5
Wind Variable Wind from WNW
Gusts 3.4 mph

Today
High -- | Low -- °F
--% Chance of Precip.
Yesterday
High -- | Low -- °F
Precip. -- in
6:58 AM 6:07 PM
Waning Crescent, 1% visible
Pressure 29.94 in
Visibility 8.0 miles
Clouds Scattered Clouds 20000 ft
Dew Point 64 °F
Humidity 85%
Rainfall 0.00 in
Snow Depth Not available.
UV 0 out of 12
Pollen 3.90 out of 12
Ozone Good
PM2.5 Moderate
Flu Activity Sporadic
METAR KSAN 230251Z 29004KT 8SM SCT200 21/17 A2994 RMK AO2 SLP138 T02110172 53012

More Conditions Fewer Conditions

Pressure 29.94 in
Visibility 8.0 miles
Clouds Scattered Clouds 20000 ft
Dew Point 64 °F
Humidity 85%
Rainfall 0.00 in
Snow Depth Not available.
UV 0 out of 12
Pollen 3.90 out of 12
Ozone Good
PM2.5 Moderate
Flu Activity Sporadic
METAR KSAN 230251Z 29004KT 8SM SCT200 21/17 A2994 RMK AO2 SLP138 T02110172 53012

More Conditions Fewer Conditions

10-Day Weather Forecast

Almanac

Astronomy

Oct. 22, 2014 Rise Set
Actual Time 6:58 AM PDT 6:07 PM PDT
Civil Twilight 6:33 AM PDT 6:32 PM PDT
Nautical Twilight 6:04 AM PDT 7:01 PM PDT
Astronomical Twilight 5:35 AM PDT 7:29 PM PDT
Moon 5:47 AM PDT (10/22) 5:34 PM PDT (10/22)
Length of Visible Light 11h 59m
Length of Day
11h 09m
Tomorrow will be 1m 51s shorter.
Waning Crescent, 1% of the Moon is Illuminated
Today
Waning Crescent
Oct 23
New
Oct 30
First Quarter
Nov 6
Full
Nov 14
Last Quarter

Today's Extremes

State Highs State Lows

Community

WunderPhotos

Upload Photos

1,764,130 photos uploaded!

Nearby

Air Quality

  Air Quality AQ Index Pollutant
Yesterday Good
OZONE
Yesterday Good
PM2.5
Current Moderate
PM2.5
Current Good
OZONE
Wednesday Good
OZONE
Thursday Moderate
PM2.5
Thursday Good
OZONE

Snow Depth

Station Depth Elevation
Leavitt Lake 0 in 9400 ft
Leavitt Meadows 1 in 7200 ft
Summit Meadow 0 in 9122 ft
Monitor Pass 0 in 8350 ft
Hagan's Meadow 0 in 8000 ft

Earthquake Activity

City Distance Mag. Time & Date
Alberto Oviedo Mota, Mexico 120 miles 3.5 9:05 PM PDT
2014-10-21
Delta, Mexico 113 miles 2.5 8:53 PM PDT
2014-10-21
Alberto Oviedo Mota, Mexico 122 miles 2.7 4:13 PM PDT
2014-10-21
Alberto Oviedo Mota, Mexico 120 miles 3.3 3:57 PM PDT
2014-10-21
Minimum magnitude displayed is 2.5.

Coastal Water Temperatures

Place Temperature
La Jolla, CA 71.1 °F
San Diego, CA 73.9 °F

Nearby Weather Stations